Time;durP1;ratioP1;P1;durP2;ratioP2;P2;SDS_P1;SDS_P2;PMS_P1;PMS_P2;Temp;Humidity;BMP_temperature;BMP_pressure;BME280_temperature;BME280_humidity;BME280_pressure;Samples;Min_cycle;Max_cycle;Signal;HPM_P1;HPM_P2
2022/09/08 00:01:33;;;;;;;7.38;6.22;;;;;;;21.41;60.13;98638.34;5105414;28;20235;-71
2022/09/08 00:04:03;;;;;;;8.57;5.70;;;;;;;21.72;59.83;98692.41;5105520;28;20056;-71
2022/09/08 00:06:32;;;;;;;7.07;6.38;;;;;;;21.66;60.18;98693.09;5105470;28;20056;-71
2022/09/08 00:08:59;;;;;;;7.88;6.43;;;;;;;21.66;59.86;98690.38;5105270;28;20180;-70
2022/09/08 00:11:30;;;;;;;6.57;5.97;;;;;;;21.67;60.07;98696.63;5105229;28;20081;-71
2022/09/08 00:13:59;;;;;;;7.55;5.78;;;;;;;21.62;60.27;98701.69;5105519;28;20349;-71
2022/09/08 00:16:26;;;;;;;5.60;5.03;;;;;;;21.59;60.38;98707.41;5103885;28;20051;-71
2022/09/08 00:18:54;;;;;;;10.50;8.00;;;;;;;21.58;59.92;98697.66;5124356;28;20055;-71
2022/09/08 00:21:25;;;;;;;8.00;6.43;;;;;;;21.55;60.32;98715.00;5125531;28;20319;-71
2022/09/08 00:23:53;;;;;;;6.93;5.47;;;;;;;21.53;60.28;98703.53;5125476;28;20246;-71
2022/09/08 00:26:21;;;;;;;7.95;7.15;;;;;;;21.56;60.21;98703.22;5125624;28;20040;-71
2022/09/08 00:28:49;;;;;;;8.65;6.68;;;;;;;21.19;60.10;98630.97;5125497;28;20108;-71
2022/09/08 00:31:17;;;;;;;7.40;6.65;;;;;;;21.52;60.47;98685.69;5125574;28;20051;-71
2022/09/08 00:33:45;;;;;;;9.13;6.35;;;;;;;21.50;60.28;98681.47;5125198;28;20059;-71
2022/09/08 00:36:15;;;;;;;6.75;6.05;;;;;;;21.46;60.38;98681.81;5125189;28;20052;-71
2022/09/08 00:38:44;;;;;;;7.05;5.88;;;;;;;21.45;60.87;98671.19;5124878;28;20085;-71
2022/09/08 00:41:13;;;;;;;7.72;6.22;;;;;;;21.31;60.79;98637.69;5125426;28;20315;-71
2022/09/08 00:43:42;;;;;;;7.35;6.15;;;;;;;21.43;60.39;98655.19;5125297;28;20063;-71
2022/09/08 00:46:22;;;;;;;7.72;6.88;;;;;;;21.41;60.57;98665.31;5125153;28;20063;-71
2022/09/08 00:48:55;;;;;;;7.45;6.30;;;;;;;21.37;60.82;98673.91;5125264;28;20112;-71
2022/09/08 00:51:24;;;;;;;8.50;6.57;;;;;;;21.06;60.92;98612.63;5124932;28;20114;-71
2022/09/08 00:53:55;;;;;;;9.27;7.70;;;;;;;21.39;60.70;98661.09;5125459;28;20100;-71
2022/09/08 00:56:24;;;;;;;9.70;8.40;;;;;;;21.33;60.74;98667.16;5125116;28;20051;-70
2022/09/08 00:58:52;;;;;;;7.95;6.97;;;;;;;21.35;60.95;98662.47;5125348;28;20284;-70
2022/09/08 01:01:19;;;;;;;9.50;6.85;;;;;;;21.36;60.88;98664.97;5125007;28;20113;-70
2022/09/08 01:03:48;;;;;;;7.70;6.78;;;;;;;21.35;61.01;98662.47;5107934;28;20100;-70
2022/09/08 01:14:55;;;;;;;9.80;8.52;;;;;;;21.27;61.29;98654.38;5111653;28;20316;-70
2022/09/08 01:17:25;;;;;;;11.05;8.07;;;;;;;21.24;61.46;98650.16;5110862;28;20109;-70
2022/09/08 01:19:54;;;;;;;8.85;7.20;;;;;;;21.21;61.23;98652.34;5128498;28;20097;-70
2022/09/08 01:22:34;;;;;;;8.50;7.53;;;;;;;20.48;61.75;98529.28;5128498;28;20255;-70
2022/09/08 01:25:26;;;;;;;8.50;7.60;;;;;;;21.20;61.69;98645.28;5128662;28;20120;-71
2022/09/08 01:28:04;;;;;;;8.25;7.43;;;;;;;21.18;61.81;98641.91;5128308;28;20114;-70
2022/09/08 01:30:33;;;;;;;9.13;7.68;;;;;;;21.17;62.11;98630.28;5128501;28;20073;-70
2022/09/08 01:33:02;;;;;;;8.15;7.35;;;;;;;21.07;61.61;98600.84;5128534;28;20051;-70
2022/09/08 01:35:31;;;;;;;8.38;7.43;;;;;;;21.16;61.58;98627.78;5110445;28;20069;-70
2022/09/08 01:37:58;;;;;;;9.13;8.20;;;;;;;21.12;61.66;98638.88;5128107;28;20051;-71
2022/09/08 01:40:25;;;;;;;8.77;7.50;;;;;;;20.95;61.76;98617.47;5128168;28;20188;-71
2022/09/08 01:42:53;;;;;;;8.05;7.25;;;;;;;21.11;61.96;98642.59;5127909;28;20262;-71
2022/09/08 01:45:23;;;;;;;9.70;7.50;;;;;;;21.08;62.21;98637.53;5128219;28;20055;-70
2022/09/08 01:47:50;;;;;;;7.82;7.00;;;;;;;21.05;62.01;98645.13;5127786;28;20051;-70
2022/09/08 01:50:17;;;;;;;8.13;7.32;;;;;;;21.05;61.83;98639.72;5128070;28;20047;-70
2022/09/08 01:52:44;;;;;;;9.80;7.63;;;;;;;21.04;61.81;98632.66;5127851;28;20059;-70
2022/09/08 01:55:12;;;;;;;10.77;8.25;;;;;;;21.00;62.28;98632.13;5128077;28;20055;-70
2022/09/08 01:57:39;;;;;;;8.23;7.30;;;;;;;21.01;61.92;98630.28;5128011;28;20108;-70
2022/09/08 02:00:08;;;;;;;11.20;8.07;;;;;;;20.99;62.13;98633.13;5127585;28;20051;-70
2022/09/08 02:02:37;;;;;;;7.97;6.88;;;;;;;21.00;62.18;98628.59;5127491;28;20059;-70
2022/09/08 02:05:05;;;;;;;8.50;7.35;;;;;;;20.96;62.41;98638.84;5127537;28;20120;-70
2022/09/08 02:07:38;;;;;;;8.02;6.75;;;;;;;20.97;62.17;98637.00;5127645;28;20108;-70
2022/09/08 02:10:07;;;;;;;7.93;7.15;;;;;;;20.96;62.10;98651.47;5127694;28;20056;-70
2022/09/08 02:12:34;;;;;;;8.07;7.28;;;;;;;20.66;61.94;98581.09;5127747;28;20324;-70
2022/09/08 02:15:01;;;;;;;7.50;6.80;;;;;;;20.98;62.14;98625.22;5127482;28;20315;-70
2022/09/08 02:17:29;;;;;;;7.72;6.90;;;;;;;20.99;61.90;98619.66;5127358;28;20116;-71
2022/09/08 02:19:58;;;;;;;7.85;7.15;;;;;;;20.96;62.14;98620.00;5127671;28;20254;-70
2022/09/08 02:22:26;;;;;;;9.18;7.30;;;;;;;20.95;62.38;98614.78;5127567;28;20307;-70
2022/09/08 02:24:53;;;;;;;9.02;7.43;;;;;;;20.91;62.13;98613.44;5127245;28;20314;-70
2022/09/08 02:27:21;;;;;;;7.90;7.07;;;;;;;20.80;62.33;98620.00;5127381;28;20060;-70
2022/09/08 02:29:49;;;;;;;7.72;6.93;;;;;;;20.75;62.58;98620.50;5127107;28;20059;-71
2022/09/08 02:32:16;;;;;;;7.35;6.45;;;;;;;20.82;62.76;98610.75;5127086;28;20081;-70
2022/09/08 02:34:43;;;;;;;8.10;7.30;;;;;;;20.83;62.63;98606.19;5127303;28;20323;-70
2022/09/08 02:37:12;;;;;;;7.50;6.63;;;;;;;20.86;62.89;98611.25;5127446;28;20056;-70
2022/09/08 02:39:40;;;;;;;8.57;6.95;;;;;;;20.71;62.81;98586.00;5109687;28;20055;-70
2022/09/08 02:42:07;;;;;;;8.57;7.82;;;;;;;20.83;63.34;98607.03;5127213;28;20358;-70
2022/09/08 02:44:34;;;;;;;8.60;7.20;;;;;;;20.86;63.08;98608.56;5127232;28;20059;-71
2022/09/08 02:47:01;;;;;;;8.00;7.30;;;;;;;20.82;63.17;98605.34;5127168;28;20051;-71
2022/09/08 02:49:30;;;;;;;8.85;7.68;;;;;;;20.83;63.52;98601.66;5108799;28;20092;-70
2022/09/08 02:51:57;;;;;;;9.23;8.32;;;;;;;20.56;63.46;98547.28;5109249;28;20196;-70
2022/09/08 02:54:26;;;;;;;9.38;7.57;;;;;;;20.83;63.80;98582.81;5126837;28;20368;-71
2022/09/08 02:56:53;;;;;;;7.85;7.15;;;;;;;20.75;63.82;98585.50;5126809;28;20055;-71
2022/09/08 02:59:20;;;;;;;13.85;9.52;;;;;;;20.72;64.24;98577.75;5126824;28;20105;-70
2022/09/08 03:01:48;;;;;;;11.52;7.90;;;;;;;20.76;64.15;98576.41;5126680;28;20055;-70
2022/09/08 03:04:15;;;;;;;9.48;7.80;;;;;;;20.79;63.92;98578.75;5109206;28;20085;-71
2022/09/08 03:06:43;;;;;;;9.15;8.25;;;;;;;20.64;64.10;98558.06;5126316;28;20096;-71
2022/09/08 03:09:10;;;;;;;9.23;8.32;;;;;;;20.33;64.17;98517.50;5126445;28;20353;-71
2022/09/08 03:11:39;;;;;;;8.43;7.63;;;;;;;20.78;64.01;98573.53;5126680;28;20257;-71
2022/09/08 03:14:06;;;;;;;9.93;8.23;;;;;;;20.76;64.52;98573.72;5126845;28;20052;-71
2022/09/08 03:16:34;;;;;;;7.78;6.97;;;;;;;20.76;63.91;98571.00;5126555;28;20055;-71
2022/09/08 03:19:02;;;;;;;9.00;8.07;;;;;;;20.77;64.36;98574.56;5105694;28;20105;-70
2022/09/08 03:21:30;;;;;;;9.40;8.45;;;;;;;20.75;64.20;98576.56;5105908;28;20117;-71
2022/09/08 03:23:57;;;;;;;8.90;8.00;;;;;;;20.71;64.33;98567.16;5105626;28;20247;-70
2022/09/08 03:26:24;;;;;;;8.80;7.95;;;;;;;20.74;64.17;98561.44;5105582;28;20197;-71
2022/09/08 03:28:53;;;;;;;10.70;9.02;;;;;;;20.56;64.71;98536.50;5105859;28;20106;-71
2022/09/08 03:31:22;;;;;;;10.40;8.85;;;;;;;20.60;64.76;98559.41;5105621;28;20273;-71
2022/09/08 03:33:49;;;;;;;10.15;9.15;;;;;;;19.85;65.07;98484.09;5106058;28;20064;-70
2022/09/08 03:36:19;;;;;;;9.63;8.73;;;;;;;20.54;64.76;98560.91;5105502;28;20048;-71
2022/09/08 03:38:46;;;;;;;10.90;9.80;;;;;;;20.58;64.87;98548.81;5105952;28;20056;-71
2022/09/08 03:41:15;;;;;;;11.00;9.90;;;;;;;20.60;64.71;98545.94;5105382;28;20104;-71
2022/09/08 03:43:44;;;;;;;11.18;10.02;;;;;;;20.54;64.71;98533.16;5105710;28;20101;-70
2022/09/08 03:46:13;;;;;;;12.57;11.38;;;;;;;20.51;64.86;98545.09;5105702;28;20073;-70
2022/09/08 03:48:40;;;;;;;11.25;9.57;;;;;;;20.57;64.90;98548.97;5105639;28;20254;-71
2022/09/08 03:51:10;;;;;;;11.00;9.88;;;;;;;20.44;64.92;98533.31;5088181;28;20060;-71
2022/09/08 03:53:37;;;;;;;11.75;10.63;;;;;;;20.46;64.89;98534.81;5105494;28;20051;-70
2022/09/08 03:56:07;;;;;;;12.13;11.02;;;;;;;20.48;64.59;98526.59;5105268;28;20109;-71
2022/09/08 03:58:34;;;;;;;12.23;10.35;;;;;;;20.42;64.68;98525.41;5105325;28;20089;-71
2022/09/08 04:01:02;;;;;;;12.27;11.07;;;;;;;20.42;64.79;98535.34;5105358;28;20052;-70
2022/09/08 04:03:31;;;;;;;11.07;9.95;;;;;;;20.40;64.94;98527.41;5105187;28;20120;-71
2022/09/08 04:05:59;;;;;;;12.43;10.38;;;;;;;19.86;65.02;98434.69;5105758;28;20052;-71
2022/09/08 04:08:27;;;;;;;11.52;10.35;;;;;;;20.34;65.36;98522.72;5105137;28;20052;-71
2022/09/08 04:10:54;;;;;;;11.93;10.82;;;;;;;20.23;65.61;98528.41;5105188;28;20250;-71
2022/09/08 04:13:22;;;;;;;12.80;10.95;;;;;;;20.34;64.91;98525.41;5105330;28;20047;-71
2022/09/08 04:15:50;;;;;;;12.30;11.10;;;;;;;20.29;65.26;98529.59;5105361;28;20101;-70
2022/09/08 04:18:18;;;;;;;12.57;11.38;;;;;;;20.16;65.63;98524.66;5118884;28;20372;-71
2022/09/08 04:20:46;;;;;;;12.05;10.85;;;;;;;20.09;65.63;98523.66;5125535;28;20101;-71
2022/09/08 04:23:14;;;;;;;13.75;12.35;;;;;;;20.05;65.79;98523.13;5125509;28;20112;-70
2022/09/08 04:25:41;;;;;;;12.45;11.20;;;;;;;20.07;65.81;98521.13;5125510;28;20055;-71
2022/09/08 04:28:09;;;;;;;13.73;12.43;;;;;;;20.08;65.96;98522.81;5107663;28;20059;-71
2022/09/08 04:30:39;;;;;;;12.30;11.10;;;;;;;20.10;65.78;98522.63;5125349;28;20051;-71
2022/09/08 04:33:07;;;;;;;12.82;10.45;;;;;;;19.97;66.19;98519.59;5125017;28;20096;-70
2022/09/08 04:35:34;;;;;;;13.00;11.73;;;;;;;19.94;66.07;98518.06;5124821;28;20243;-71
2022/09/08 04:38:02;;;;;;;12.95;11.05;;;;;;;20.05;65.83;98515.06;5125625;28;20085;-70
2022/09/08 04:40:29;;;;;;;12.43;11.35;;;;;;;19.89;65.76;98498.88;5128539;28;20056;-71
2022/09/08 04:42:57;;;;;;;14.07;10.85;;;;;;;19.98;65.95;98510.50;5129225;28;20056;-71
2022/09/08 04:45:24;;;;;;;14.55;11.15;;;;;;;20.03;65.81;98517.06;5129198;28;20055;-70
2022/09/08 04:47:51;;;;;;;12.77;11.48;;;;;;;20.03;65.70;98508.16;5129242;28;20117;-70
2022/09/08 04:50:18;;;;;;;15.88;14.02;;;;;;;19.93;65.99;98520.91;5129133;28;20064;-71
2022/09/08 04:52:45;;;;;;;12.07;10.95;;;;;;;19.95;66.16;98505.47;5129385;28;20056;-71
2022/09/08 04:55:14;;;;;;;12.80;11.50;;;;;;;19.99;66.02;98513.03;5129237;28;20056;-71
2022/09/08 04:57:41;;;;;;;12.88;11.70;;;;;;;19.93;66.22;98505.63;5129072;28;20108;-71
2022/09/08 05:00:11;;;;;;;14.55;13.18;;;;;;;19.90;66.04;98507.81;5129093;28;20308;-71
2022/09/08 05:02:39;;;;;;;12.57;11.35;;;;;;;19.85;66.06;98495.69;5128679;28;20063;-71
2022/09/08 05:05:07;;;;;;;11.93;10.82;;;;;;;19.81;66.16;98493.50;5129046;28;20320;-71
2022/09/08 05:07:34;;;;;;;13.30;12.10;;;;;;;19.75;66.28;98486.06;5110685;28;20055;-71
2022/09/08 05:10:01;;;;;;;12.48;10.23;;;;;;;19.79;66.27;98477.50;5128967;28;20376;-71
2022/09/08 05:12:32;;;;;;;25.77;12.10;;;;;;;19.72;66.36;98467.56;5128921;28;20067;-71
2022/09/08 05:14:59;;;;;;;13.15;11.82;;;;;;;19.69;66.74;98481.31;5128905;28;20051;-71
2022/09/08 05:17:29;;;;;;;12.15;10.98;;;;;;;19.49;66.84;98448.50;5128521;28;20308;-71
2022/09/08 05:19:56;;;;;;;12.15;10.57;;;;;;;19.58;67.09;98463.66;5128244;28;20096;-71
2022/09/08 05:22:24;;;;;;;14.38;11.65;;;;;;;19.50;66.79;98440.28;5128384;28;20055;-70
2022/09/08 05:24:52;;;;;;;14.27;10.98;;;;;;;19.63;66.75;98469.38;5128744;28;20108;-71
2022/09/08 05:27:19;;;;;;;13.88;12.48;;;;;;;19.60;66.60;98460.81;5128345;28;20112;-71
2022/09/08 05:29:48;;;;;;;12.18;11.02;;;;;;;19.72;66.31;98459.50;5127989;28;20233;-70
2022/09/08 05:32:16;;;;;;;13.52;11.15;;;;;;;19.73;66.41;98464.72;5128562;28;20051;-71
2022/09/08 05:34:44;;;;;;;13.10;11.80;;;;;;;19.68;66.48;98458.97;5128143;28;20312;-71
2022/09/08 05:37:11;;;;;;;13.50;10.90;;;;;;;19.85;65.98;98470.66;5128590;28;20257;-70
2022/09/08 05:39:38;;;;;;;13.98;10.98;;;;;;;19.92;65.60;98478.91;5128383;28;20104;-71
2022/09/08 05:42:06;;;;;;;12.80;11.50;;;;;;;19.72;65.45;98448.75;5127866;28;20239;-70
2022/09/08 05:44:33;;;;;;;11.95;10.75;;;;;;;19.90;65.73;98465.63;5128229;28;20039;-71
2022/09/08 05:47:02;;;;;;;16.73;9.63;;;;;;;19.95;65.42;98465.13;5127913;28;20052;-71
2022/09/08 05:49:29;;;;;;;11.80;10.70;;;;;;;19.93;65.39;98459.91;5127490;28;20323;-70
2022/09/08 05:51:57;;;;;;;11.57;10.38;;;;;;;19.95;65.38;98452.50;5127674;28;20097;-71
2022/09/08 05:54:24;;;;;;;11.57;10.38;;;;;;;20.02;65.36;98450.84;5128042;28;20052;-71
2022/09/08 05:56:52;;;;;;;12.85;9.73;;;;;;;19.98;64.97;98443.28;5128192;28;20043;-70
2022/09/08 05:59:19;;;;;;;11.65;10.55;;;;;;;19.97;65.03;98431.69;5128085;28;20055;-71
2022/09/08 06:01:46;;;;;;;11.25;10.07;;;;;;;19.98;64.94;98436.06;5128011;28;20055;-71
2022/09/08 06:04:15;;;;;;;11.45;9.38;;;;;;;20.04;64.93;98434.53;5127909;28;20056;-70
2022/09/08 06:06:42;;;;;;;11.40;10.27;;;;;;;20.08;64.52;98442.09;5128001;28;20044;-71
2022/09/08 06:09:12;;;;;;;11.32;10.23;;;;;;;20.15;64.41;98448.50;5127324;28;20112;-70
2022/09/08 06:11:40;;;;;;;10.43;8.85;;;;;;;20.17;64.46;98449.19;5127567;28;20348;-71
2022/09/08 06:14:08;;;;;;;12.57;9.77;;;;;;;20.13;64.36;98431.69;5127474;28;20219;-71
2022/09/08 06:16:35;;;;;;;12.35;9.88;;;;;;;20.31;64.13;98454.94;5127283;28;20108;-71
2022/09/08 06:19:04;;;;;;;13.98;9.88;;;;;;;20.43;63.81;98458.97;5127198;28;20071;-70
2022/09/08 06:21:34;;;;;;;10.43;8.93;;;;;;;20.56;63.59;98453.06;5126997;28;20055;-70
2022/09/08 06:24:04;;;;;;;10.13;9.10;;;;;;;20.63;63.53;98454.91;5126932;28;20056;-70
2022/09/08 06:26:54;;;;;;;11.38;9.75;;;;;;;20.82;63.03;98465.31;5127022;28;20100;-70
2022/09/08 06:29:34;;;;;;;10.20;9.20;;;;;;;21.01;62.04;98442.56;5126974;28;20104;-71
2022/09/08 06:32:08;;;;;;;10.05;8.15;;;;;;;21.14;61.33;98442.88;5093743;28;20238;-70
2022/09/08 06:34:40;;;;;;;9.00;8.13;;;;;;;21.21;60.96;98415.25;5126841;28;20051;-71
2022/09/08 06:37:13;;;;;;;9.38;8.23;;;;;;;21.39;61.23;98418.53;5126933;28;20108;-70
2022/09/08 06:39:45;;;;;;;9.77;8.87;;;;;;;21.44;60.36;98419.69;5127503;28;20062;-70
2022/09/08 06:42:16;;;;;;;9.13;8.23;;;;;;;21.63;59.84;98421.09;5126699;28;20056;-70
2022/09/08 06:44:47;;;;;;;8.82;8.02;;;;;;;21.74;59.36;98418.00;5126878;28;20056;-71
2022/09/08 06:47:19;;;;;;;8.20;7.35;;;;;;;21.85;59.35;98418.63;5109522;28;20376;-70
2022/09/08 06:49:47;;;;;;;7.80;7.10;;;;;;;21.54;58.89;98360.16;5126480;28;20101;-70
2022/09/08 06:52:22;;;;;;;7.55;6.63;;;;;;;22.04;58.65;98405.50;5126982;28;20104;-70
2022/09/08 06:54:55;;;;;;;6.75;6.03;;;;;;;21.62;58.12;98326.91;5126470;28;20063;-70
2022/09/08 06:57:32;;;;;;;7.72;6.95;;;;;;;22.21;57.83;98424.28;5126423;28;20047;-71
2022/09/08 07:00:09;;;;;;;8.30;7.40;;;;;;;22.24;57.54;98426.59;5126536;28;20052;-71
2022/09/08 07:02:57;;;;;;;6.60;5.95;;;;;;;22.30;57.17;98433.97;5125887;28;20052;-71
2022/09/08 07:05:50;;;;;;;9.77;7.05;;;;;;;22.32;57.20;98424.69;5126460;28;20063;-70
2022/09/08 07:08:33;;;;;;;8.77;6.80;;;;;;;22.24;57.39;98422.06;5126765;28;20253;-70
2022/09/08 07:11:08;;;;;;;10.82;7.57;;;;;;;22.18;57.55;98425.47;5126598;28;20105;-70
2022/09/08 07:13:42;;;;;;;9.77;7.30;;;;;;;21.74;58.42;98366.75;5126303;28;20059;-70
2022/09/08 07:16:21;;;;;;;6.88;6.10;;;;;;;22.30;57.67;98424.03;5126598;28;20226;-70
2022/09/08 07:18:53;;;;;;;8.38;6.20;;;;;;;22.49;57.58;98405.66;5126581;28;20100;-70
2022/09/08 07:21:30;;;;;;;8.15;5.75;;;;;;;22.68;57.10;98406.00;5126393;28;20051;-70
2022/09/08 07:24:02;;;;;;;6.38;5.72;;;;;;;22.78;56.78;98410.31;5126838;28;20344;-70
2022/09/08 07:26:35;;;;;;;6.82;5.65;;;;;;;22.86;56.80;98412.91;5126389;28;20051;-70
2022/09/08 07:29:05;;;;;;;6.85;5.85;;;;;;;22.81;56.81;98418.03;5125903;28;20052;-70
2022/09/08 07:31:40;;;;;;;7.78;5.63;;;;;;;22.37;56.55;98344.00;5126291;28;20109;-69
2022/09/08 07:34:16;;;;;;;8.57;5.15;;;;;;;22.95;56.22;98411.81;5125877;28;20055;-70
2022/09/08 07:36:50;;;;;;;6.85;5.13;;;;;;;22.52;56.31;98338.63;5125790;28;20055;-70
2022/09/08 07:39:22;;;;;;;6.25;5.30;;;;;;;22.71;56.73;98346.22;5126184;28;20333;-70
2022/09/08 07:41:51;;;;;;;7.47;4.85;;;;;;;22.81;56.51;98366.72;5126356;28;20108;-70
2022/09/08 07:44:20;;;;;;;7.90;6.35;;;;;;;23.01;56.28;98409.19;5126272;28;20088;-70
2022/09/08 07:47:09;;;;;;;6.93;5.15;;;;;;;23.14;56.13;98408.53;5125872;28;20098;-70
2022/09/08 07:49:44;;;;;;;6.20;5.30;;;;;;;23.11;55.84;98413.47;5125765;28;20063;-70
2022/09/08 07:52:24;;;;;;;6.53;5.57;;;;;;;23.00;56.12;98414.78;5125603;28;20102;-70
2022/09/08 07:55:03;;;;;;;7.88;5.75;;;;;;;23.04;56.24;98416.09;5125452;28;20063;-70
2022/09/08 07:57:41;;;;;;;9.93;5.47;;;;;;;22.95;56.25;98428.84;5125364;28;20055;-70
2022/09/08 08:00:15;;;;;;;10.82;5.72;;;;;;;22.96;56.68;98419.72;5125720;28;20105;-70
2022/09/08 08:02:57;;;;;;;8.25;5.30;;;;;;;22.77;56.55;98374.34;5125492;28;20123;-70
2022/09/08 08:05:29;;;;;;;7.13;5.47;;;;;;;23.23;56.81;98415.53;5125708;28;20052;-70
2022/09/08 08:08:10;;;;;;;5.22;4.57;;;;;;;23.27;55.69;98406.03;5125653;28;20262;-70
2022/09/08 08:10:45;;;;;;;6.90;4.63;;;;;;;23.59;55.27;98415.59;5125434;28;20352;-70
2022/09/08 08:13:26;;;;;;;4.90;4.38;;;;;;;23.64;54.66;98415.03;5125642;28;20105;-70
2022/09/08 08:16:05;;;;;;;6.60;5.32;;;;;;;23.78;54.36;98414.13;5125358;28;20311;-70
2022/09/08 08:18:44;;;;;;;5.63;4.68;;;;;;;23.87;53.68;98421.09;5125381;28;20109;-70
2022/09/08 08:21:15;;;;;;;6.57;3.88;;;;;;;23.90;53.77;98411.78;5125694;28;20059;-70
2022/09/08 08:24:01;;;;;;;5.03;4.07;;;;;;;23.96;52.99;98411.84;5125523;28;20055;-70
2022/09/08 08:26:36;;;;;;;8.98;4.82;;;;;;;24.08;53.06;98417.59;5125428;28;20056;-70
2022/09/08 08:29:25;;;;;;;5.90;4.95;;;;;;;24.18;52.63;98420.00;5125575;28;20113;-70
2022/09/08 08:31:58;;;;;;;5.72;4.30;;;;;;;24.37;52.69;98413.09;5125620;28;20040;-70
2022/09/08 08:34:28;;;;;;;7.93;5.37;;;;;;;24.50;52.98;98413.19;5124765;28;20108;-70
2022/09/08 08:37:01;;;;;;;7.47;4.60;;;;;;;24.50;52.07;98427.56;5125421;28;20312;-70
2022/09/08 08:39:32;;;;;;;6.30;4.22;;;;;;;24.20;52.24;98366.50;5107338;28;20052;-70
2022/09/08 08:42:22;;;;;;;5.90;4.57;;;;;;;24.58;51.40;98421.16;5125851;28;20040;-70
2022/09/08 08:45:07;;;;;;;6.45;5.00;;;;;;;24.59;51.14;98428.25;5125109;28;20055;-71
2022/09/08 08:47:51;;;;;;;4.32;3.92;;;;;;;24.69;51.40;98425.25;5124927;28;20101;-71
2022/09/08 08:50:53;;;;;;;4.68;3.90;;;;;;;24.71;50.93;98428.59;5125157;28;20056;-71
2022/09/08 08:53:46;;;;;;;6.93;4.63;;;;;;;24.71;50.98;98415.06;5125218;28;20112;-70
2022/09/08 08:56:21;;;;;;;5.97;5.15;;;;;;;24.95;50.66;98433.56;5121916;28;20105;-70
2022/09/08 08:59:25;;;;;;;5.00;4.03;;;;;;;24.94;50.37;98427.31;5124707;28;20048;-71
2022/09/08 09:02:10;;;;;;;6.00;3.90;;;;;;;24.64;50.26;98366.22;5124785;28;20097;-70
2022/09/08 09:05:14;;;;;;;7.03;4.55;;;;;;;24.99;49.39;98425.88;5107356;28;20367;-70
2022/09/08 09:08:02;;;;;;;5.95;4.72;;;;;;;25.09;49.64;98432.63;5125315;28;20055;-70
2022/09/08 09:10:49;;;;;;;6.32;4.30;;;;;;;25.25;49.63;98434.19;5124625;28;20063;-70
2022/09/08 09:13:36;;;;;;;5.25;4.72;;;;;;;25.33;48.81;98430.50;5125199;28;20043;-70
2022/09/08 09:16:33;;;;;;;7.32;4.60;;;;;;;25.29;48.72;98440.88;5124843;28;20051;-72
2022/09/08 09:19:30;;;;;;;4.80;4.30;;;;;;;25.50;48.91;98437.25;5124572;28;20323;-71
2022/09/08 09:22:12;;;;;;;7.10;4.65;;;;;;;25.28;48.46;98387.69;5124942;28;20060;-71
2022/09/08 09:24:48;;;;;;;5.13;4.05;;;;;;;25.62;50.13;98438.34;5124894;28;20055;-71
2022/09/08 09:27:28;;;;;;;6.22;4.40;;;;;;;25.71;48.76;98429.00;5128578;28;20051;-70
2022/09/08 09:30:14;;;;;;;5.78;4.63;;;;;;;26.01;48.32;98429.53;5110936;28;20071;-71
2022/09/08 09:33:17;;;;;;;6.30;4.28;;;;;;;26.20;47.10;98417.88;5127931;28;20059;-71
2022/09/08 09:36:20;;;;;;;6.68;4.72;;;;;;;26.23;46.79;98420.16;5110264;28;20047;-72
2022/09/08 09:39:09;;;;;;;6.80;4.20;;;;;;;26.29;46.76;98425.81;5109982;28;20053;-71
2022/09/08 09:41:51;;;;;;;6.55;4.57;;;;;;;26.34;46.15;98399.69;5128302;28;20052;-70
2022/09/08 09:44:39;;;;;;;6.80;4.75;;;;;;;26.53;46.24;98419.75;5127536;28;20055;-70
2022/09/08 09:47:31;;;;;;;6.03;4.80;;;;;;;26.60;46.06;98392.59;5110645;28;20063;-71
2022/09/08 09:50:38;;;;;;;5.50;4.90;;;;;;;26.96;45.68;98420.16;5127984;28;20109;-71
2022/09/08 09:53:34;;;;;;;9.15;4.88;;;;;;;27.15;45.35;98416.56;5127486;28;20100;-71
2022/09/08 09:56:33;;;;;;;6.53;4.85;;;;;;;26.96;45.05;98356.81;5127877;28;20051;-70
2022/09/08 09:59:36;;;;;;;5.25;4.45;;;;;;;26.36;43.86;98266.41;5124909;28;20097;-72
2022/09/08 10:02:45;;;;;;;5.45;4.30;;;;;;;26.98;43.80;98373.75;5109996;28;20187;-72
2022/09/08 10:05:47;;;;;;;4.60;4.00;;;;;;;26.71;44.56;98326.75;5113064;28;20062;-72
2022/09/08 10:08:55;;;;;;;4.53;4.13;;;;;;;27.31;43.44;98431.63;5089885;28;20051;-72
2022/09/08 10:11:55;;;;;;;4.60;4.07;;;;;;;27.18;44.20;98413.44;5127615;28;20105;-72
2022/09/08 10:15:01;;;;;;;5.97;4.25;;;;;;;27.35;43.97;98438.31;5127432;28;20116;-72
2022/09/08 10:18:16;;;;;;;5.78;4.32;;;;;;;27.39;43.24;98425.94;5127327;28;20055;-72
2022/09/08 10:20:58;;;;;;;6.85;3.42;;;;;;;27.45;44.26;98426.97;5044989;28;20084;-71
2022/09/08 10:24:07;;;;;;;5.47;4.13;;;;;;;27.56;42.48;98434.47;5126359;28;20059;-71
2022/09/08 10:27:04;;;;;;;6.68;4.40;;;;;;;27.57;42.51;98447.03;5127038;28;20055;-71
2022/09/08 10:29:54;;;;;;;5.57;4.07;;;;;;;27.56;43.34;98448.06;5127721;28;20056;-71
2022/09/08 10:32:49;;;;;;;5.00;4.10;;;;;;;27.50;43.81;98436.16;5127391;28;20112;-72
2022/09/08 10:35:41;;;;;;;7.60;5.07;;;;;;;27.57;44.68;98447.03;5127281;28;20047;-71
2022/09/08 10:38:46;;;;;;;8.65;5.82;;;;;;;27.62;43.63;98449.97;5124435;28;20081;-71
2022/09/08 10:41:54;;;;;;;4.95;4.50;;;;;;;27.57;44.11;98463.34;5126588;28;20077;-72
2022/09/08 10:44:40;;;;;;;5.75;4.78;;;;;;;27.57;44.83;98460.63;5103907;28;20119;-71
2022/09/08 10:47:46;;;;;;;10.38;5.30;;;;;;;27.65;44.87;98456.84;5110434;28;20063;-72
2022/09/08 10:50:19;;;;;;;7.88;5.07;;;;;;;27.72;47.42;98461.22;5126871;28;20052;-72
2022/09/08 10:52:52;;;;;;;8.70;5.68;;;;;;;27.69;47.55;98471.72;5126706;28;20047;-72
2022/09/08 10:55:36;;;;;;;7.03;5.32;;;;;;;27.49;46.95;98477.19;5126570;28;20073;-72
2022/09/08 10:58:28;;;;;;;;;;;;;;;27.31;47.81;98483.31;5109264;28;20105;-72
2022/09/08 11:01:12;;;;;;;7.35;4.45;;;;;;;27.29;49.98;98473.69;5110885;28;20094;-74
2022/09/08 11:04:05;;;;;;;6.70;5.47;;;;;;;27.24;54.03;98481.66;5126456;28;20124;-74
2022/09/08 11:06:49;;;;;;;6.10;5.50;;;;;;;26.97;53.73;98481.66;5126374;28;20175;-73
2022/09/08 11:09:36;;;;;;;6.00;5.28;;;;;;;26.47;52.22;98530.09;5126020;28;20120;-74
2022/09/08 11:12:25;;;;;;;7.38;5.35;;;;;;;26.08;52.54;98521.84;5126733;28;20051;-73
2022/09/08 11:15:25;;;;;;;8.15;5.57;;;;;;;25.88;55.40;98516.31;5126545;28;20059;-73
2022/09/08 11:18:08;;;;;;;6.53;5.78;;;;;;;25.52;55.28;98511.13;5099425;28;20112;-75
2022/09/08 11:20:43;;;;;;;7.63;5.85;;;;;;;25.51;55.68;98517.59;5126372;28;20051;-74
2022/09/08 11:23:24;;;;;;;6.65;4.90;;;;;;;25.44;57.50;98523.00;5126458;28;20069;-74
2022/09/08 11:26:00;;;;;;;7.35;5.57;;;;;;;22.90;55.08;98146.78;5125777;28;20096;-74
2022/09/08 11:28:42;;;;;;;8.18;7.25;;;;;;;24.91;54.27;98535.28;5125975;28;20093;-73
2022/09/08 11:31:21;;;;;;;8.98;5.97;;;;;;;24.85;56.52;98545.03;5126339;28;20100;-74
2022/09/08 11:34:13;;;;;;;8.25;6.25;;;;;;;24.69;56.09;98539.03;5125803;28;20120;-74
2022/09/08 11:37:25;;;;;;;7.22;5.32;;;;;;;24.53;57.18;98530.09;5125700;28;20101;-74
2022/09/08 11:40:23;;;;;;;9.32;6.03;;;;;;;24.42;56.64;98532.47;5113937;28;20221;-74
2022/09/08 11:43:24;;;;;;;10.65;5.88;;;;;;;24.28;57.81;98534.22;5126034;28;20060;-74
2022/09/08 11:46:14;;;;;;;6.35;5.70;;;;;;;24.31;58.78;98536.53;5112117;28;20118;-74
2022/09/08 11:49:09;;;;;;;6.20;5.60;;;;;;;24.13;59.14;98538.84;5126164;28;20040;-74
2022/09/08 11:51:50;;;;;;;6.60;5.65;;;;;;;23.93;56.57;98542.13;5125509;28;20250;-74
2022/09/08 11:54:37;;;;;;;6.28;5.55;;;;;;;23.27;56.39;98432.25;5125548;28;20055;-74
2022/09/08 11:57:19;;;;;;;6.55;5.47;;;;;;;23.81;56.94;98540.91;5125979;28;20059;-73
2022/09/08 12:00:04;;;;;;;7.35;4.95;;;;;;;23.72;57.60;98550.16;5125607;28;20257;-74
2022/09/08 12:02:54;;;;;;;5.63;5.13;;;;;;;23.62;57.82;98566.69;5125939;28;20055;-74
2022/09/08 12:05:33;;;;;;;7.50;6.00;;;;;;;23.59;58.85;98558.94;5125244;28;20059;-74
2022/09/08 12:08:27;;;;;;;6.35;5.65;;;;;;;23.58;58.89;98551.00;5125505;28;20101;-74
2022/09/08 12:11:10;;;;;;;5.47;4.97;;;;;;;23.55;58.60;98563.03;5107552;28;20108;-74
2022/09/08 12:13:47;;;;;;;9.00;5.35;;;;;;;23.46;57.71;98544.38;5125487;28;20067;-74
2022/09/08 12:16:34;;;;;;;5.63;4.65;;;;;;;23.27;57.20;98553.88;5125406;28;20051;-74
2022/09/08 12:19:16;;;;;;;10.52;4.88;;;;;;;23.12;57.33;98575.44;5124980;28;20055;-73